Angelus Oaks, California
Current Conditions -  °F | °C
As of 4:15 PM on Sunday 23 Nov 2014 (Local Time) from KL35 Reporting Station
Clear Clear  
Wind Chill: 43°   Ceiling: Unl
Heat Index: 43°   Visibility: 10mi
Dew Point: -15°   Wind: 0mph
Humidity: 8%   Direction: NA
Pressure: 30.27"   Gusts: NA
Location:  34.15°N, 116.98°W
Report Text: KL35 240015Z AUTO 00000KT 10SM CLR 06/M26 A3027 RMK AO2
Loading
Personal Weather Stations






























Interactive Weather Map New forecast layout! Learn more

10-Day Weather Forecast

Advertisements
Track Severe Weather on mobile